Time;durP1;ratioP1;P1;durP2;ratioP2;P2;SDS_P1;SDS_P2;PMS_P1;PMS_P2;Temp;Humidity;BMP_temperature;BMP_pressure;BME280_temperature;BME280_humidity;BME280_pressure;Samples;Min_cycle;Max_cycle;Signal;HPM_P1;HPM_P2
2023/08/30 00:02:13;;;;;;;;;;;;;;;;;;5013926;28;19908;-71
2023/08/30 00:04:39;;;;;;;;;;;;;;;;;;5030271;28;19944;-71
2023/08/30 00:07:05;;;;;;;;;;;;;;;;;;5031512;28;19911;-70
2023/08/30 00:09:31;;;;;;;;;;;;;;;;;;5030934;28;19919;-70
2023/08/30 00:11:56;;;;;;;;;;;;;;;;;;5031345;28;19905;-70
2023/08/30 00:14:22;;;;;;;;;;;;;;;;;;5031647;28;19905;-70
2023/08/30 00:16:48;;;;;;;;;;;;;;;;;;5031095;28;19931;-70
2023/08/30 00:19:14;;;;;;;;;;;;;;;;;;5030673;28;19909;-71
2023/08/30 00:21:40;;;;;;;;;;;;;;;;;;5031075;28;19912;-70
2023/08/30 00:24:06;;;;;;;;;;;;;;;;;;5031381;28;19904;-71
2023/08/30 00:26:32;;;;;;;;;;;;;;;;;;5031299;28;19911;-71
2023/08/30 00:28:58;;;;;;;;;;;;;;;;;;5030509;28;19987;-70
2023/08/30 00:31:24;;;;;;;;;;;;;;;;;;5031094;28;20377;-70
2023/08/30 00:33:50;;;;;;;;;;;;;;;;;;5030814;28;20288;-69
2023/08/30 00:36:18;;;;;;;;;;;;;;;;;;5039430;28;20035;-69
2023/08/30 00:38:44;;;;;;;;;;;;;;;;;;5030130;28;19909;-70
2023/08/30 00:41:10;;;;;;;;;;;;;;;;;;5031110;28;19905;-70
2023/08/30 00:43:35;;;;;;;;;;;;;;;;;;5031076;28;19915;-70
2023/08/30 00:46:01;;;;;;;;;;;;;;;;;;5013496;28;19905;-70
2023/08/30 00:48:27;;;;;;;;;;;;;;;;;;5030349;28;19913;-70
2023/08/30 00:50:53;;;;;;;;;;;;;;;;;;5030916;28;20378;-70
2023/08/30 00:53:19;;;;;;;;;;;;;;;;;;5030867;28;19905;-70
2023/08/30 00:55:45;;;;;;;;;;;;;;;;;;5031122;28;19905;-69
2023/08/30 00:58:11;;;;;;;;;;;;;;;;;;5030167;28;19909;-71
2023/08/30 01:00:37;;;;;;;;;;;;;;;;;;5030514;28;19905;-69
2023/08/30 01:03:03;;;;;;;;;;;;;;;;;;5030797;28;19935;-71
2023/08/30 01:05:29;;;;;;;;;;;;;;;;;;5030738;28;19905;-71
2023/08/30 01:07:54;;;;;;;;;;;;;;;;;;5030151;28;20395;-69
2023/08/30 01:10:20;;;;;;;;;;;;;;;;;;5031234;28;19940;-69
2023/08/30 01:12:46;;;;;;;;;;;;;;;;;;5031128;28;20327;-69
2023/08/30 01:15:13;;;;;;;;;;;;;;;;;;5032620;28;19905;-70
2023/08/30 01:17:38;;;;;;;;;;;;;;;;;;5034035;28;19905;-70
2023/08/30 01:20:09;;;;;;;;;;;;;;;;;;5034391;28;20366;-70
2023/08/30 01:22:34;;;;;;;;;;;;;;;;;;5034202;28;20047;-69
2023/08/30 01:25:00;;;;;;;;;;;;;;;;;;5034442;28;20369;-70
2023/08/30 01:27:26;;;;;;;;;;;;;;;;;;5033538;28;19931;-72
2023/08/30 01:29:52;;;;;;;;;;;;;;;;;;5034245;28;20288;-70
2023/08/30 01:32:20;;;;;;;;;;;;;;;;;;5034272;28;19909;-72
2023/08/30 01:34:46;;;;;;;;;;;;;;;;;;5034183;28;20268;-70
2023/08/30 01:37:13;;;;;;;;;;;;;;;;;;5033966;28;19905;-72
2023/08/30 01:39:40;;;;;;;;;;;;;;;;;;5033525;28;20399;-71
2023/08/30 01:42:07;;;;;;;;;;;;;;;;;;5034100;28;19905;-72
2023/08/30 01:44:33;;;;;;;;;;;;;;;;;;5033800;28;20012;-70
2023/08/30 01:46:59;;;;;;;;;;;;;;;;;;5033943;28;19927;-70
2023/08/30 01:49:25;;;;;;;;;;;;;;;;;;5033382;28;20420;-71
2023/08/30 01:51:51;;;;;;;;;;;;;;;;;;5033876;28;20264;-71
2023/08/30 01:54:16;;;;;;;;;;;;;;;;;;5033950;28;19905;-70
2023/08/30 01:56:42;;;;;;;;;;;;;;;;;;5033658;28;19905;-72
2023/08/30 01:59:08;;;;;;;;;;;;;;;;;;5033065;28;20296;-70
2023/08/30 02:01:34;;;;;;;;;;;;;;;;;;5033643;28;19991;-70
2023/08/30 02:04:00;;;;;;;;;;;;;;;;;;5033779;28;20287;-70
2023/08/30 02:06:26;;;;;;;;;;;;;;;;;;5033678;28;19911;-70
2023/08/30 02:08:52;;;;;;;;;;;;;;;;;;5033032;28;19909;-71
2023/08/30 02:11:18;;;;;;;;;;;;;;;;;;5033735;28;20292;-71
2023/08/30 02:13:44;;;;;;;;;;;;;;;;;;5033429;28;19905;-70
2023/08/30 02:16:10;;;;;;;;;;;;;;;;;;5033652;28;19916;-71
2023/08/30 02:18:36;;;;;;;;;;;;;;;;;;5032600;28;19931;-71
2023/08/30 02:21:02;;;;;;;;;;;;;;;;;;5033483;28;19905;-71
2023/08/30 02:23:27;;;;;;;;;;;;;;;;;;5033346;28;19905;-72
2023/08/30 02:25:53;;;;;;;;;;;;;;;;;;5032704;28;20396;-71
2023/08/30 02:28:19;;;;;;;;;;;;;;;;;;5031946;28;19912;-71
2023/08/30 02:30:45;;;;;;;;;;;;;;;;;;5015362;28;20319;-71
2023/08/30 02:33:11;;;;;;;;;;;;;;;;;;5033316;28;19905;-71
2023/08/30 02:35:37;;;;;;;;;;;;;;;;;;5015356;28;19905;-71
2023/08/30 02:38:04;;;;;;;;;;;;;;;;;;5032319;28;19920;-71
2023/08/30 02:40:31;;;;;;;;;;;;;;;;;;5033262;28;19912;-70
2023/08/30 02:42:57;;;;;;;;;;;;;;;;;;5032755;28;19916;-71
2023/08/30 02:45:22;;;;;;;;;;;;;;;;;;5033053;28;20396;-70
2023/08/30 02:47:48;;;;;;;;;;;;;;;;;;5032079;28;19912;-71
2023/08/30 02:50:14;;;;;;;;;;;;;;;;;;5032819;28;19905;-71
2023/08/30 02:52:40;;;;;;;;;;;;;;;;;;5032693;28;19952;-72
2023/08/30 02:55:06;;;;;;;;;;;;;;;;;;5032835;28;19905;-70
2023/08/30 02:57:32;;;;;;;;;;;;;;;;;;5031704;28;20515;-71
2023/08/30 02:59:58;;;;;;;;;;;;;;;;;;5032488;28;19905;-69
2023/08/30 03:02:24;;;;;;;;;;;;;;;;;;5032556;28;20287;-71
2023/08/30 03:04:50;;;;;;;;;;;;;;;;;;5032308;28;19908;-71
2023/08/30 03:07:15;;;;;;;;;;;;;;;;;;5032092;28;19912;-69
2023/08/30 03:09:41;;;;;;;;;;;;;;;;;;5032510;28;19920;-70
2023/08/30 03:12:07;;;;;;;;;;;;;;;;;;5032211;28;20019;-70
2023/08/30 03:14:33;;;;;;;;;;;;;;;;;;5032296;28;19905;-70
2023/08/30 03:16:59;;;;;;;;;;;;;;;;;;5032279;28;19905;-70
2023/08/30 03:19:25;;;;;;;;;;;;;;;;;;5031728;28;19916;-70
2023/08/30 03:21:51;;;;;;;;;;;;;;;;;;5032144;28;19905;-70
2023/08/30 03:24:17;;;;;;;;;;;;;;;;;;5032427;28;19912;-69
2023/08/30 03:26:43;;;;;;;;;;;;;;;;;;5031820;28;19909;-68
2023/08/30 03:29:09;;;;;;;;;;;;;;;;;;5031772;28;19943;-69
2023/08/30 03:31:35;;;;;;;;;;;;;;;;;;5031969;28;19909;-69
2023/08/30 03:34:01;;;;;;;;;;;;;;;;;;5032224;28;19913;-70
2023/08/30 03:36:27;;;;;;;;;;;;;;;;;;5031913;28;19905;-70
2023/08/30 03:38:53;;;;;;;;;;;;;;;;;;5030913;28;20600;-69
2023/08/30 03:41:19;;;;;;;;;;;;;;;;;;5031643;28;19988;-70
2023/08/30 03:43:45;;;;;;;;;;;;;;;;;;5031970;28;19911;-69
2023/08/30 03:46:11;;;;;;;;;;;;;;;;;;5031685;28;20344;-70
2023/08/30 03:48:37;;;;;;;;;;;;;;;;;;5030960;28;20273;-69
2023/08/30 03:51:03;;;;;;;;;;;;;;;;;;5031831;28;19909;-69
2023/08/30 03:53:30;;;;;;;;;;;;;;;;;;5031758;28;19944;-70
2023/08/30 03:55:56;;;;;;;;;;;;;;;;;;5031598;28;19909;-71
2023/08/30 03:58:21;;;;;;;;;;;;;;;;;;5030913;28;20356;-70
2023/08/30 04:00:47;;;;;;;;;;;;;;;;;;5031340;28;19913;-70
2023/08/30 04:03:13;;;;;;;;;;;;;;;;;;5031659;28;19916;-70
2023/08/30 04:05:39;;;;;;;;;;;;;;;;;;5031340;28;19916;-71
2023/08/30 04:08:05;;;;;;;;;;;;;;;;;;5030745;28;19951;-70
2023/08/30 04:10:31;;;;;;;;;;;;;;;;;;5031456;28;20007;-71
2023/08/30 04:12:57;;;;;;;;;;;;;;;;;;5031207;28;20406;-71
2023/08/30 04:15:23;;;;;;;;;;;;;;;;;;5013415;28;19916;-72
2023/08/30 04:17:49;;;;;;;;;;;;;;;;;;5030502;28;19917;-71
2023/08/30 04:20:14;;;;;;;;;;;;;;;;;;5013408;28;20287;-72
2023/08/30 04:22:40;;;;;;;;;;;;;;;;;;5031033;28;19909;-72
2023/08/30 04:25:09;;;;;;;;;;;;;;;;;;5031406;28;19908;-72
2023/08/30 04:27:35;;;;;;;;;;;;;;;;;;5030287;28;19915;-71
2023/08/30 04:30:00;;;;;;;;;;;;;;;;;;5030993;28;19909;-72
2023/08/30 04:32:26;;;;;;;;;;;;;;;;;;5031045;28;19905;-72
2023/08/30 04:34:52;;;;;;;;;;;;;;;;;;5030921;28;20007;-71
2023/08/30 04:37:18;;;;;;;;;;;;;;;;;;5031037;28;19907;-70
2023/08/30 04:39:44;;;;;;;;;;;;;;;;;;5030424;28;20004;-71
2023/08/30 04:42:10;;;;;;;;;;;;;;;;;;5031018;28;20274;-71
2023/08/30 04:44:36;;;;;;;;;;;;;;;;;;5030640;28;19905;-71
2023/08/30 04:47:02;;;;;;;;;;;;;;;;;;5030877;28;19969;-71
2023/08/30 04:49:29;;;;;;;;;;;;;;;;;;5030736;28;20727;-70
2023/08/30 04:51:55;;;;;;;;;;;;;;;;;;5035090;28;19916;-71
2023/08/30 04:54:21;;;;;;;;;;;;;;;;;;5034878;28;19913;-71
2023/08/30 04:56:46;;;;;;;;;;;;;;;;;;5025286;28;19912;-70
2023/08/30 04:59:12;;;;;;;;;;;;;;;;;;5033843;28;20008;-70
2023/08/30 05:01:41;;;;;;;;;;;;;;;;;;5034503;28;19971;-70
2023/08/30 05:04:07;;;;;;;;;;;;;;;;;;5034561;28;20100;-70
2023/08/30 05:06:33;;;;;;;;;;;;;;;;;;5016648;28;20040;-70
2023/08/30 05:08:59;;;;;;;;;;;;;;;;;;5033820;28;19909;-69
2023/08/30 05:11:25;;;;;;;;;;;;;;;;;;5034673;28;19912;-70
2023/08/30 05:13:51;;;;;;;;;;;;;;;;;;5034526;28;20288;-69
2023/08/30 05:16:17;;;;;;;;;;;;;;;;;;5034336;28;19959;-70
2023/08/30 05:18:43;;;;;;;;;;;;;;;;;;5035507;28;20308;-71
2023/08/30 05:21:09;;;;;;;;;;;;;;;;;;5040021;28;19920;-69
2023/08/30 05:23:35;;;;;;;;;;;;;;;;;;5034117;28;20002;-70
2023/08/30 05:26:01;;;;;;;;;;;;;;;;;;5033839;28;20421;-70
2023/08/30 05:28:27;;;;;;;;;;;;;;;;;;5015797;28;19916;-70
2023/08/30 05:30:52;;;;;;;;;;;;;;;;;;5033955;28;19999;-71
2023/08/30 05:33:19;;;;;;;;;;;;;;;;;;5034011;28;20454;-71
2023/08/30 05:35:45;;;;;;;;;;;;;;;;;;5033840;28;19905;-71
2023/08/30 05:38:11;;;;;;;;;;;;;;;;;;5033385;28;20395;-69
2023/08/30 05:40:42;;;;;;;;;;;;;;;;;;5033717;28;19905;-70
2023/08/30 05:43:08;;;;;;;;;;;;;;;;;;5034175;28;20491;-69
2023/08/30 05:45:34;;;;;;;;;;;;;;;;;;5033739;28;19955;-70
2023/08/30 05:48:00;;;;;;;;;;;;;;;;;;5033277;28;19905;-71
2023/08/30 05:50:26;;;;;;;;;;;;;;;;;;5033617;28;19905;-70
2023/08/30 05:52:52;;;;;;;;;;;;;;;;;;5033441;28;19911;-71
2023/08/30 05:55:17;;;;;;;;;;;;;;;;;;5033754;28;20000;-68
2023/08/30 05:57:43;;;;;;;;;;;;;;;;;;5014857;28;19971;-70
2023/08/30 06:00:09;;;;;;;;;;;;;;;;;;5033478;28;19912;-71
2023/08/30 06:02:35;;;;;;;;;;;;;;;;;;5041695;28;20325;-69
2023/08/30 06:05:02;;;;;;;;;;;;;;;;;;5033532;28;19912;-71
2023/08/30 06:07:28;;;;;;;;;;;;;;;;;;5032914;28;19927;-70
2023/08/30 06:09:54;;;;;;;;;;;;;;;;;;5033367;28;20380;-70
2023/08/30 06:12:20;;;;;;;;;;;;;;;;;;5033526;28;19905;-71
2023/08/30 06:14:51;;;;;;;;;;;;;;;;;;5033122;28;19913;-70
2023/08/30 06:17:17;;;;;;;;;;;;;;;;;;5033328;28;19962;-70
2023/08/30 06:19:43;;;;;;;;;;;;;;;;;;5032749;28;19951;-71
2023/08/30 06:22:09;;;;;;;;;;;;;;;;;;5033445;28;20034;-71
2023/08/30 06:24:35;;;;;;;;;;;;;;;;;;5033032;28;20291;-70
2023/08/30 06:27:01;;;;;;;;;;;;;;;;;;5032628;28;19917;-70
2023/08/30 06:29:27;;;;;;;;;;;;;;;;;;5032487;28;19912;-70
2023/08/30 06:31:53;;;;;;;;;;;;;;;;;;5032763;28;19911;-70
2023/08/30 06:34:19;;;;;;;;;;;;;;;;;;5031719;28;19909;-70
2023/08/30 06:36:44;;;;;;;;;;;;;;;;;;5031062;28;19909;-71
2023/08/30 06:39:10;;;;;;;;;;;;;;;;;;5012723;28;19909;-71
2023/08/30 06:41:36;;;;;;;;;;;;;;;;;;5030825;28;19905;-69
2023/08/30 06:44:03;;;;;;;;;;;;;;;;;;5031367;28;19912;-69
2023/08/30 06:46:29;;;;;;;;;;;;;;;;;;5030585;28;19905;-70
2023/08/30 06:48:55;;;;;;;;;;;;;;;;;;5030226;28;20442;-70
2023/08/30 06:51:20;;;;;;;;;;;;;;;;;;5031771;28;19905;-68
2023/08/30 06:53:47;;;;;;;;;;;;;;;;;;5032774;28;19905;-67
2023/08/30 06:56:12;;;;;;;;;;;;;;;;;;5032672;28;20327;-69
2023/08/30 06:58:38;;;;;;;;;;;;;;;;;;5031705;28;20077;-68
2023/08/30 07:01:04;;;;;;;;;;;;;;;;;;5032768;28;19927;-68
2023/08/30 07:03:30;;;;;;;;;;;;;;;;;;5014755;28;19905;-69
2023/08/30 07:05:56;;;;;;;;;;;;;;;;;;5032872;28;19916;-69
2023/08/30 07:08:22;;;;;;;;;;;;;;;;;;5032017;28;19928;-69
2023/08/30 07:10:48;;;;;;;;;;;;;;;;;;5014348;28;19912;-70
2023/08/30 07:13:14;;;;;;;;;;;;;;;;;;5031607;28;20008;-70
2023/08/30 07:15:40;;;;;;;;;;;;;;;;;;5032357;28;20317;-71
2023/08/30 07:18:06;;;;;;;;;;;;;;;;;;5036794;28;19917;-71
2023/08/30 07:20:32;;;;;;;;;;;;;;;;;;5042862;28;19958;-72
2023/08/30 07:22:58;;;;;;;;;;;;;;;;;;5052435;28;19904;-72
2023/08/30 07:25:24;;;;;;;;;;;;;;;;;;5052680;28;20593;-69
2023/08/30 07:27:50;;;;;;;;;;;;;;;;;;5034420;28;20273;-71
2023/08/30 07:30:15;;;;;;;;;;;;;;;;;;5053989;28;19905;-69
2023/08/30 07:32:42;;;;;;;;;;;;;;;;;;5052051;28;19905;-70
2023/08/30 07:35:08;;;;;;;;;;;;;;;;;;5051892;28;19927;-70
2023/08/30 07:37:34;;;;;;;;;;;;;;;;;;5051107;28;20364;-70
2023/08/30 07:39:59;;;;;;;;;;;;;;;;;;5051831;28;19908;-70
2023/08/30 07:42:25;;;;;;;;;;;;;;;;;;5051777;28;19905;-69
2023/08/30 07:44:51;;;;;;;;;;;;;;;;;;5051562;28;20002;-69
2023/08/30 07:47:17;;;;;;;;;;;;;;;;;;5051859;28;20336;-70
2023/08/30 07:49:43;;;;;;;;;;;;;;;;;;5051557;28;19908;-71
2023/08/30 07:52:10;;;;;;;;;;;;;;;;;;5051717;28;19905;-71
2023/08/30 07:54:36;;;;;;;;;;;;;;;;;;5051595;28;19904;-70
2023/08/30 07:57:02;;;;;;;;;;;;;;;;;;5051639;28;19909;-70
2023/08/30 07:59:28;;;;;;;;;;;;;;;;;;5051056;28;19909;-70
2023/08/30 08:01:54;;;;;;;;;;;;;;;;;;5051531;28;19915;-71
2023/08/30 08:04:20;;;;;;;;;;;;;;;;;;5051678;28;19905;-71
2023/08/30 08:06:46;;;;;;;;;;;;;;;;;;5051220;28;20212;-70
2023/08/30 08:09:12;;;;;;;;;;;;;;;;;;5050862;28;19962;-70
2023/08/30 08:11:39;;;;;;;;;;;;;;;;;;5051586;28;19988;-70
2023/08/30 08:14:05;;;;;;;;;;;;;;;;;;5051147;28;20386;-71
2023/08/30 08:16:31;;;;;;;;;;;;;;;;;;5051323;28;19904;-71
2023/08/30 08:18:59;;;;;;;;;;;;;;;;;;5050625;28;19916;-71
2023/08/30 08:21:25;;;;;;;;;;;;;;;;;;5033675;28;20291;-71
2023/08/30 08:23:51;;;;;;;;;;;;;;;;;;5032924;28;19916;-71
2023/08/30 08:26:17;;;;;;;;;;;;;;;;;;5051085;28;19916;-71
2023/08/30 08:28:42;;;;;;;;;;;;;;;;;;5050584;28;19905;-71
2023/08/30 08:31:08;;;;;;;;;;;;;;;;;;5051066;28;19915;-71
2023/08/30 08:33:35;;;;;;;;;;;;;;;;;;5051075;28;19908;-71
2023/08/30 08:36:01;;;;;;;;;;;;;;;;;;5051209;28;19912;-71
2023/08/30 08:38:27;;;;;;;;;;;;;;;;;;5032534;28;20054;-70
2023/08/30 08:40:53;;;;;;;;;;;;;;;;;;5051008;28;19931;-71
2023/08/30 08:43:19;;;;;;;;;;;;;;;;;;5051275;28;19991;-71
2023/08/30 08:45:45;;;;;;;;;;;;;;;;;;5051055;28;19904;-71
2023/08/30 08:48:11;;;;;;;;;;;;;;;;;;5050665;28;19905;-71
2023/08/30 08:50:37;;;;;;;;;;;;;;;;;;5050916;28;19940;-71
2023/08/30 08:53:03;;;;;;;;;;;;;;;;;;5050688;28;19911;-71
2023/08/30 08:55:30;;;;;;;;;;;;;;;;;;5051001;28;20384;-72
2023/08/30 08:57:56;;;;;;;;;;;;;;;;;;5050287;28;19905;-69
2023/08/30 09:00:22;;;;;;;;;;;;;;;;;;5050897;28;19958;-70
2023/08/30 09:02:50;;;;;;;;;;;;;;;;;;5051258;28;20511;-70
2023/08/30 09:05:15;;;;;;;;;;;;;;;;;;5050884;28;20042;-70
2023/08/30 09:07:41;;;;;;;;;;;;;;;;;;5050110;28;19954;-70
2023/08/30 09:10:07;;;;;;;;;;;;;;;;;;5051229;28;20372;-70
2023/08/30 09:12:33;;;;;;;;;;;;;;;;;;5050453;28;19912;-70
2023/08/30 09:14:59;;;;;;;;;;;;;;;;;;5051164;28;19905;-70
2023/08/30 09:17:25;;;;;;;;;;;;;;;;;;5050406;28;19927;-70
2023/08/30 09:19:51;;;;;;;;;;;;;;;;;;5050332;28;19916;-70
2023/08/30 09:22:17;;;;;;;;;;;;;;;;;;5050695;28;19904;-70
2023/08/30 09:24:43;;;;;;;;;;;;;;;;;;5050578;28;20338;-71
2023/08/30 09:27:09;;;;;;;;;;;;;;;;;;5050434;28;20398;-71
2023/08/30 09:29:35;;;;;;;;;;;;;;;;;;5050264;28;19935;-72
2023/08/30 09:32:01;;;;;;;;;;;;;;;;;;5050529;28;19904;-72
2023/08/30 09:34:27;;;;;;;;;;;;;;;;;;5050754;28;19905;-72
2023/08/30 09:36:53;;;;;;;;;;;;;;;;;;5053093;28;19911;-72
2023/08/30 09:39:18;;;;;;;;;;;;;;;;;;5053551;28;19915;-72
2023/08/30 09:41:44;;;;;;;;;;;;;;;;;;5054223;28;19905;-72
2023/08/30 09:44:10;;;;;;;;;;;;;;;;;;5054286;28;19905;-72
2023/08/30 09:46:36;;;;;;;;;;;;;;;;;;5054279;28;20373;-70
2023/08/30 09:49:02;;;;;;;;;;;;;;;;;;5053933;28;19982;-72
2023/08/30 09:51:28;;;;;;;;;;;;;;;;;;5054472;28;19936;-72
2023/08/30 09:53:54;;;;;;;;;;;;;;;;;;5054401;28;20389;-72
2023/08/30 09:56:20;;;;;;;;;;;;;;;;;;5054031;28;19912;-72
2023/08/30 09:58:46;;;;;;;;;;;;;;;;;;5052900;28;19909;-71
2023/08/30 10:01:12;;;;;;;;;;;;;;;;;;5054011;28;19904;-71
2023/08/30 10:03:38;;;;;;;;;;;;;;;;;;5053738;28;20346;-72
2023/08/30 10:06:05;;;;;;;;;;;;;;;;;;5053928;28;19992;-71
2023/08/30 10:08:31;;;;;;;;;;;;;;;;;;5052973;28;19927;-71
2023/08/30 10:10:57;;;;;;;;;;;;;;;;;;5053497;28;19955;-71
2023/08/30 10:13:23;;;;;;;;;;;;;;;;;;5053350;28;20368;-71
2023/08/30 10:15:49;;;;;;;;;;;;;;;;;;5053441;28;19979;-72
2023/08/30 10:18:15;;;;;;;;;;;;;;;;;;5053012;28;19909;-71
2023/08/30 10:20:41;;;;;;;;;;;;;;;;;;5053307;28;20254;-72
2023/08/30 10:23:08;;;;;;;;;;;;;;;;;;5053153;28;19904;-71
2023/08/30 10:25:34;;;;;;;;;;;;;;;;;;5053295;28;19921;-70
2023/08/30 10:28:00;;;;;;;;;;;;;;;;;;5052885;28;20356;-71
2023/08/30 10:30:26;;;;;;;;;;;;;;;;;;5053221;28;19905;-71
2023/08/30 10:32:52;;;;;;;;;;;;;;;;;;5053334;28;19911;-71
2023/08/30 10:35:18;;;;;;;;;;;;;;;;;;5053334;28;19908;-71
2023/08/30 10:37:44;;;;;;;;;;;;;;;;;;5052270;28;19962;-70
2023/08/30 10:40:11;;;;;;;;;;;;;;;;;;5053135;28;19904;-71
2023/08/30 10:42:37;;;;;;;;;;;;;;;;;;5053491;28;19987;-71
2023/08/30 10:45:03;;;;;;;;;;;;;;;;;;5035082;28;19954;-71
2023/08/30 10:47:29;;;;;;;;;;;;;;;;;;5051429;28;19909;-70
2023/08/30 10:49:55;;;;;;;;;;;;;;;;;;5052917;28;19950;-71
2023/08/30 10:52:21;;;;;;;;;;;;;;;;;;5053140;28;20368;-69
2023/08/30 10:54:47;;;;;;;;;;;;;;;;;;5052800;28;19912;-70
2023/08/30 10:57:12;;;;;;;;;;;;;;;;;;5052509;28;20486;-71
2023/08/30 10:59:38;;;;;;;;;;;;;;;;;;5052390;28;19965;-70
2023/08/30 11:02:04;;;;;;;;;;;;;;;;;;5052404;28;19904;-71
2023/08/30 11:04:30;;;;;;;;;;;;;;;;;;5052646;28;19929;-70
2023/08/30 11:06:56;;;;;;;;;;;;;;;;;;5052297;28;19958;-70
2023/08/30 11:09:22;;;;;;;;;;;;;;;;;;5052262;28;20323;-69
2023/08/30 11:11:48;;;;;;;;;;;;;;;;;;5052462;28;19911;-70
2023/08/30 11:14:14;;;;;;;;;;;;;;;;;;5052583;28;19905;-72
2023/08/30 11:16:40;;;;;;;;;;;;;;;;;;5052377;28;20276;-71
2023/08/30 11:19:06;;;;;;;;;;;;;;;;;;5051784;28;19908;-70
2023/08/30 11:21:32;;;;;;;;;;;;;;;;;;5052366;28;20411;-70
2023/08/30 11:23:58;;;;;;;;;;;;;;;;;;5052069;28;19905;-70
2023/08/30 11:26:24;;;;;;;;;;;;;;;;;;5052486;28;19970;-70
2023/08/30 11:28:52;;;;;;;;;;;;;;;;;;5051738;28;19904;-69
2023/08/30 11:31:18;;;;;;;;;;;;;;;;;;5051948;28;20423;-70
2023/08/30 11:33:44;;;;;;;;;;;;;;;;;;5051940;28;19984;-69
2023/08/30 11:36:10;;;;;;;;;;;;;;;;;;5051565;28;20333;-70
2023/08/30 11:38:36;;;;;;;;;;;;;;;;;;5051114;28;19916;-70
2023/08/30 11:41:01;;;;;;;;;;;;;;;;;;5052018;28;20248;-72
2023/08/30 11:43:27;;;;;;;;;;;;;;;;;;5052199;28;19946;-71
2023/08/30 11:45:53;;;;;;;;;;;;;;;;;;5051645;28;19909;-71
2023/08/30 11:48:19;;;;;;;;;;;;;;;;;;5051072;28;19911;-71
2023/08/30 11:50:45;;;;;;;;;;;;;;;;;;5051555;28;19980;-71
2023/08/30 11:53:11;;;;;;;;;;;;;;;;;;5051628;28;19905;-71
2023/08/30 11:55:37;;;;;;;;;;;;;;;;;;5051389;28;20491;-68
2023/08/30 11:58:03;;;;;;;;;;;;;;;;;;5050952;28;19911;-71
2023/08/30 12:00:29;;;;;;;;;;;;;;;;;;5051514;28;19909;-71
2023/08/30 12:02:54;;;;;;;;;;;;;;;;;;5051574;28;19912;-71
2023/08/30 12:05:21;;;;;;;;;;;;;;;;;;5051470;28;19908;-71
2023/08/30 12:07:47;;;;;;;;;;;;;;;;;;5051224;28;19909;-70
2023/08/30 12:10:13;;;;;;;;;;;;;;;;;;5050708;28;20143;-71
2023/08/30 12:12:39;;;;;;;;;;;;;;;;;;5050465;28;19999;-71
2023/08/30 12:15:05;;;;;;;;;;;;;;;;;;5051621;28;19954;-71
2023/08/30 12:17:31;;;;;;;;;;;;;;;;;;5051510;28;19908;-71
2023/08/30 12:19:57;;;;;;;;;;;;;;;;;;5052529;28;19915;-70
2023/08/30 12:22:23;;;;;;;;;;;;;;;;;;5053073;28;19904;-71
2023/08/30 12:24:49;;;;;;;;;;;;;;;;;;5053427;28;19904;-71
2023/08/30 12:27:15;;;;;;;;;;;;;;;;;;5052457;28;19912;-70
2023/08/30 12:29:41;;;;;;;;;;;;;;;;;;5051626;28;19904;-70
2023/08/30 12:32:07;;;;;;;;;;;;;;;;;;5051586;28;19920;-71
2023/08/30 12:34:33;;;;;;;;;;;;;;;;;;5050632;28;19905;-71
2023/08/30 12:36:59;;;;;;;;;;;;;;;;;;5049791;28;20048;-71
2023/08/30 12:39:25;;;;;;;;;;;;;;;;;;5050647;28;19908;-71
2023/08/30 12:41:51;;;;;;;;;;;;;;;;;;5051274;28;19909;-71
2023/08/30 12:44:16;;;;;;;;;;;;;;;;;;5050804;28;19966;-72
2023/08/30 12:46:42;;;;;;;;;;;;;;;;;;5032899;28;20003;-70
2023/08/30 12:49:08;;;;;;;;;;;;;;;;;;5050709;28;19960;-70
2023/08/30 12:51:34;;;;;;;;;;;;;;;;;;5051644;28;19995;-72
2023/08/30 12:54:00;;;;;;;;;;;;;;;;;;5051198;28;19908;-71
2023/08/30 12:56:27;;;;;;;;;;;;;;;;;;5051119;28;20340;-71
2023/08/30 12:58:53;;;;;;;;;;;;;;;;;;5051482;28;19948;-71
2023/08/30 13:01:19;;;;;;;;;;;;;;;;;;5050988;28;19905;-72
2023/08/30 13:03:44;;;;;;;;;;;;;;;;;;5050305;28;19911;-71
2023/08/30 13:06:10;;;;;;;;;;;;;;;;;;5050833;28;19905;-71
2023/08/30 13:08:36;;;;;;;;;;;;;;;;;;5049887;28;19904;-71
2023/08/30 13:11:02;;;;;;;;;;;;;;;;;;5052259;28;19959;-72
2023/08/30 13:13:28;;;;;;;;;;;;;;;;;;5054990;28;19908;-71
2023/08/30 13:15:54;;;;;;;;;;;;;;;;;;5054919;28;19999;-72
2023/08/30 13:18:21;;;;;;;;;;;;;;;;;;5054119;28;19908;-72
2023/08/30 13:20:47;;;;;;;;;;;;;;;;;;5054883;28;19904;-70
2023/08/30 13:23:13;;;;;;;;;;;;;;;;;;5036846;28;20028;-71
2023/08/30 13:25:39;;;;;;;;;;;;;;;;;;5054618;28;20271;-71
2023/08/30 13:28:05;;;;;;;;;;;;;;;;;;5054185;28;20382;-71
2023/08/30 13:30:31;;;;;;;;;;;;;;;;;;5054862;28;19908;-71
2023/08/30 13:32:56;;;;;;;;;;;;;;;;;;5039290;28;19916;-71
2023/08/30 13:35:23;;;;;;;;;;;;;;;;;;5035022;28;20139;-70
2023/08/30 13:37:50;;;;;;;;;;;;;;;;;;5034170;28;19905;-75
2023/08/30 13:40:15;;;;;;;;;;;;;;;;;;5034765;28;19916;-71
2023/08/30 13:42:41;;;;;;;;;;;;;;;;;;5035083;28;20233;-70
2023/08/30 13:45:09;;;;;;;;;;;;;;;;;;5036165;28;19912;-71
2023/08/30 13:47:35;;;;;;;;;;;;;;;;;;5017589;28;19935;-70
2023/08/30 13:50:01;;;;;;;;;;;;;;;;;;5034693;28;19913;-71
2023/08/30 13:52:29;;;;;;;;;;;;;;;;;;5034566;28;20380;-72
2023/08/30 13:54:55;;;;;;;;;;;;;;;;;;5034498;28;19928;-75
2023/08/30 13:57:21;;;;;;;;;;;;;;;;;;5033709;28;20384;-70
2023/08/30 13:59:47;;;;;;;;;;;;;;;;;;5034168;28;19995;-72
2023/08/30 14:02:13;;;;;;;;;;;;;;;;;;5017024;28;19905;-71
2023/08/30 14:04:39;;;;;;;;;;;;;;;;;;5033962;28;19931;-70
2023/08/30 14:07:05;;;;;;;;;;;;;;;;;;5033837;28;19905;-72
2023/08/30 14:09:32;;;;;;;;;;;;;;;;;;5033511;28;19975;-71
2023/08/30 14:11:58;;;;;;;;;;;;;;;;;;5033810;28;19909;-72
2023/08/30 14:14:24;;;;;;;;;;;;;;;;;;5033775;28;19948;-71
2023/08/30 14:16:50;;;;;;;;;;;;;;;;;;5033654;28;19928;-72
2023/08/30 14:19:16;;;;;;;;;;;;;;;;;;5033058;28;19908;-71
2023/08/30 14:21:41;;;;;;;;;;;;;;;;;;5033315;28;19952;-72
2023/08/30 14:24:07;;;;;;;;;;;;;;;;;;5032935;28;19905;-71
2023/08/30 14:26:33;;;;;;;;;;;;;;;;;;5033625;28;20503;-71
2023/08/30 14:28:59;;;;;;;;;;;;;;;;;;5032662;28;20332;-71
2023/08/30 14:31:26;;;;;;;;;;;;;;;;;;5033176;28;19952;-71
2023/08/30 14:33:52;;;;;;;;;;;;;;;;;;5033167;28;19912;-72
2023/08/30 14:36:18;;;;;;;;;;;;;;;;;;5033005;28;19905;-71
2023/08/30 14:38:44;;;;;;;;;;;;;;;;;;5032360;28;19912;-71
2023/08/30 14:41:10;;;;;;;;;;;;;;;;;;5032869;28;20391;-71
2023/08/30 14:43:36;;;;;;;;;;;;;;;;;;5032797;28;19905;-70
2023/08/30 14:46:02;;;;;;;;;;;;;;;;;;5033047;28;19928;-70
2023/08/30 14:48:28;;;;;;;;;;;;;;;;;;5032886;28;19905;-71
2023/08/30 14:50:54;;;;;;;;;;;;;;;;;;5032832;28;19901;-71
2023/08/30 14:53:20;;;;;;;;;;;;;;;;;;5032969;28;19905;-71
2023/08/30 14:55:46;;;;;;;;;;;;;;;;;;5032918;28;20415;-71
2023/08/30 14:58:12;;;;;;;;;;;;;;;;;;5031960;28;19934;-70
2023/08/30 15:00:38;;;;;;;;;;;;;;;;;;5014841;28;19967;-71
2023/08/30 15:03:04;;;;;;;;;;;;;;;;;;5032884;28;19917;-70
2023/08/30 15:05:29;;;;;;;;;;;;;;;;;;5033054;28;19940;-70
2023/08/30 15:07:55;;;;;;;;;;;;;;;;;;5032028;28;19947;-71
2023/08/30 15:10:21;;;;;;;;;;;;;;;;;;5055493;22;20345;-71
2023/08/30 15:12:47;;;;;;;;;;;;;;;;;;5032951;28;19959;-72
2023/08/30 15:15:13;;;;;;;;;;;;;;;;;;5032544;28;19905;-71
2023/08/30 15:17:39;;;;;;;;;;;;;;;;;;5031509;28;19916;-71
2023/08/30 15:20:05;;;;;;;;;;;;;;;;;;5032281;28;19917;-71
2023/08/30 15:22:32;;;;;;;;;;;;;;;;;;5032345;28;20474;-71
2023/08/30 15:24:58;;;;;;;;;;;;;;;;;;5032261;28;19913;-71
2023/08/30 15:27:23;;;;;;;;;;;;;;;;;;5031950;28;19905;-71
2023/08/30 15:29:51;;;;;;;;;;;;;;;;;;5032700;28;19912;-72
2023/08/30 15:32:17;;;;;;;;;;;;;;;;;;5032653;28;20143;-72
2023/08/30 15:34:43;;;;;;;;;;;;;;;;;;5032175;28;19912;-72
2023/08/30 15:37:13;;;;;;;;;;;;;;;;;;5032758;28;20422;-71
2023/08/30 15:39:39;;;;;;;;;;;;;;;;;;5031909;28;19955;-72
2023/08/30 15:42:04;;;;;;;;;;;;;;;;;;5032503;28;19905;-73
2023/08/30 15:44:30;;;;;;;;;;;;;;;;;;5031671;28;19974;-74
2023/08/30 15:46:56;;;;;;;;;;;;;;;;;;5031342;28;19928;-73
2023/08/30 15:49:22;;;;;;;;;;;;;;;;;;5031743;28;20344;-74
2023/08/30 15:51:48;;;;;;;;;;;;;;;;;;5032198;28;20376;-73
2023/08/30 15:54:15;;;;;;;;;;;;;;;;;;5031913;28;19912;-72
2023/08/30 15:56:41;;;;;;;;;;;;;;;;;;5031271;28;19916;-73
2023/08/30 15:59:07;;;;;;;;;;;;;;;;;;5031153;28;19909;-72
2023/08/30 16:01:33;;;;;;;;;;;;;;;;;;5032054;28;19912;-72
2023/08/30 16:03:59;;;;;;;;;;;;;;;;;;5032027;28;19928;-73
2023/08/30 16:06:24;;;;;;;;;;;;;;;;;;5031516;28;19909;-72
2023/08/30 16:08:50;;;;;;;;;;;;;;;;;;5031053;28;19971;-72
2023/08/30 16:11:16;;;;;;;;;;;;;;;;;;5031343;28;20391;-71
2023/08/30 16:13:42;;;;;;;;;;;;;;;;;;5031724;28;19988;-72
2023/08/30 16:16:08;;;;;;;;;;;;;;;;;;5027110;28;19988;-72
2023/08/30 16:18:34;;;;;;;;;;;;;;;;;;5027705;28;19951;-72
2023/08/30 16:21:00;;;;;;;;;;;;;;;;;;5031723;28;19914;-73
2023/08/30 16:23:26;;;;;;;;;;;;;;;;;;5031762;28;19999;-72
2023/08/30 16:25:52;;;;;;;;;;;;;;;;;;5031701;28;20385;-72
2023/08/30 16:28:18;;;;;;;;;;;;;;;;;;5031107;28;19948;-72
2023/08/30 16:30:44;;;;;;;;;;;;;;;;;;5031014;28;19943;-72
2023/08/30 16:33:10;;;;;;;;;;;;;;;;;;5031516;28;19912;-72
2023/08/30 16:35:36;;;;;;;;;;;;;;;;;;5039279;28;19904;-73
2023/08/30 16:38:02;;;;;;;;;;;;;;;;;;5030939;28;19905;-72